sensor_id;sensor_type;location;lat;lon;timestamp;pressure;altitude;pressure_sealevel;temperature;humidity
59417;BME280;45222;52.458;20.914;2023-02-28T00:01:04;102258.29;;;-3.87;72.58
59417;BME280;45222;52.458;20.914;2023-02-28T00:04:56;102257.19;;;-3.97;72.45
59417;BME280;45222;52.458;20.914;2023-02-28T00:08:55;102259.55;;;-4.07;72.75
59417;BME280;45222;52.458;20.914;2023-02-28T00:12:41;102259.39;;;-4.15;72.81
59417;BME280;45222;52.458;20.914;2023-02-28T00:16:33;102256.66;;;-4.26;72.97
59417;BME280;45222;52.458;20.914;2023-02-28T00:20:38;102258.68;;;-4.40;72.97
59417;BME280;45222;52.458;20.914;2023-02-28T00:24:23;102259.71;;;-4.52;73.30
59417;BME280;45222;52.458;20.914;2023-02-28T00:28:15;102260.22;;;-4.61;72.77
59417;BME280;45222;52.458;20.914;2023-02-28T00:32:14;102266.28;;;-4.69;73.43
59417;BME280;45222;52.458;20.914;2023-02-28T00:36:04;102266.48;;;-4.68;73.88
59417;BME280;45222;52.458;20.914;2023-02-28T00:39:56;102267.15;;;-4.69;74.07
59417;BME280;45222;52.458;20.914;2023-02-28T00:43:54;102268.77;;;-4.67;74.36
59417;BME280;45222;52.458;20.914;2023-02-28T00:47:39;102268.50;;;-4.70;74.69
59417;BME280;45222;52.458;20.914;2023-02-28T00:51:47;102269.61;;;-4.76;74.30
59417;BME280;45222;52.458;20.914;2023-02-28T00:55:52;102273.10;;;-4.83;74.30
59417;BME280;45222;52.458;20.914;2023-02-28T00:59:37;102280.28;;;-4.89;74.56
59417;BME280;45222;52.458;20.914;2023-02-28T01:03:29;102277.24;;;-4.95;74.60
59417;BME280;45222;52.458;20.914;2023-02-28T01:07:27;102278.73;;;-5.05;73.96
59417;BME280;45222;52.458;20.914;2023-02-28T01:11:14;102277.46;;;-5.25;73.99
59417;BME280;45222;52.458;20.914;2023-02-28T01:15:20;102272.61;;;-5.43;74.35
59417;BME280;45222;52.458;20.914;2023-02-28T01:19:05;102276.95;;;-5.50;74.98
59417;BME280;45222;52.458;20.914;2023-02-28T01:22:57;102279.54;;;-5.51;75.11
59417;BME280;45222;52.458;20.914;2023-02-28T01:26:56;102281.95;;;-5.44;75.19
59417;BME280;45222;52.458;20.914;2023-02-28T01:30:41;102282.58;;;-5.37;75.13
59417;BME280;45222;52.458;20.914;2023-02-28T01:34:33;102281.70;;;-5.34;75.14
59417;BME280;45222;52.458;20.914;2023-02-28T01:38:31;102277.84;;;-5.35;75.11
59417;BME280;45222;52.458;20.914;2023-02-28T01:42:23;102280.44;;;-5.39;75.15
59417;BME280;45222;52.458;20.914;2023-02-28T01:46:21;102280.65;;;-5.42;75.03
59417;BME280;45222;52.458;20.914;2023-02-28T01:50:15;102282.95;;;-5.48;74.72
59417;BME280;45222;52.458;20.914;2023-02-28T01:54:13;102282.63;;;-5.58;75.07
59417;BME280;45222;52.458;20.914;2023-02-28T01:58:13;102283.05;;;-5.68;75.27
59417;BME280;45222;52.458;20.914;2023-02-28T02:02:21;102281.59;;;-5.80;75.31
59417;BME280;45222;52.458;20.914;2023-02-28T02:06:10;102282.09;;;-5.91;75.46
59417;BME280;45222;52.458;20.914;2023-02-28T02:10:05;102280.96;;;-5.99;75.82
59417;BME280;45222;52.458;20.914;2023-02-28T02:14:26;102282.43;;;-6.05;75.38
59417;BME280;45222;52.458;20.914;2023-02-28T02:18:29;102283.10;;;-6.10;75.74
59417;BME280;45222;52.458;20.914;2023-02-28T02:22:52;102284.91;;;-6.08;75.82
59417;BME280;45222;52.458;20.914;2023-02-28T02:27:03;102291.45;;;-6.01;76.11
59417;BME280;45222;52.458;20.914;2023-02-28T02:35:40;102293.63;;;-5.96;75.93
59417;BME280;45222;52.458;20.914;2023-02-28T02:39:48;102291.81;;;-6.05;76.16
59417;BME280;45222;52.458;20.914;2023-02-28T02:43:46;102288.82;;;-6.13;76.39
59417;BME280;45222;52.458;20.914;2023-02-28T02:47:46;102291.89;;;-6.17;76.51
59417;BME280;45222;52.458;20.914;2023-02-28T02:51:33;102293.70;;;-6.19;76.12
59417;BME280;45222;52.458;20.914;2023-02-28T02:55:26;102293.00;;;-6.26;76.39
59417;BME280;45222;52.458;20.914;2023-02-28T02:59:28;102293.23;;;-6.35;76.53
59417;BME280;45222;52.458;20.914;2023-02-28T03:03:17;102289.42;;;-6.42;76.59
59417;BME280;45222;52.458;20.914;2023-02-28T03:07:12;102291.27;;;-6.50;76.33
59417;BME280;45222;52.458;20.914;2023-02-28T03:11:13;102291.20;;;-6.55;76.38
59417;BME280;45222;52.458;20.914;2023-02-28T03:15:05;102289.27;;;-6.58;76.68
59417;BME280;45222;52.458;20.914;2023-02-28T03:19:10;102292.59;;;-6.57;76.52
59417;BME280;45222;52.458;20.914;2023-02-28T03:23:18;102294.34;;;-6.54;76.72
59417;BME280;45222;52.458;20.914;2023-02-28T03:27:08;102295.95;;;-6.49;76.49
59417;BME280;45222;52.458;20.914;2023-02-28T03:31:09;102298.48;;;-6.41;76.83
59417;BME280;45222;52.458;20.914;2023-02-28T03:35:13;102293.66;;;-6.30;76.88
59417;BME280;45222;52.458;20.914;2023-02-28T03:39:08;102294.25;;;-6.12;77.30
59417;BME280;45222;52.458;20.914;2023-02-28T03:43:07;102293.20;;;-5.94;76.88
59417;BME280;45222;52.458;20.914;2023-02-28T03:47:03;102295.75;;;-5.92;76.57
59417;BME280;45222;52.458;20.914;2023-02-28T03:51:07;102299.23;;;-5.95;76.52
59417;BME280;45222;52.458;20.914;2023-02-28T03:54:56;102303.63;;;-6.01;76.06
59417;BME280;45222;52.458;20.914;2023-02-28T03:58:57;102306.91;;;-6.11;76.06
59417;BME280;45222;52.458;20.914;2023-02-28T04:02:58;102304.26;;;-6.20;76.10
59417;BME280;45222;52.458;20.914;2023-02-28T04:06:44;102305.08;;;-6.27;76.12
59417;BME280;45222;52.458;20.914;2023-02-28T04:10:36;102304.96;;;-6.36;75.96
59417;BME280;45222;52.458;20.914;2023-02-28T04:14:34;102311.46;;;-6.41;75.88
59417;BME280;45222;52.458;20.914;2023-02-28T04:18:19;102312.34;;;-6.51;76.48
59417;BME280;45222;52.458;20.914;2023-02-28T04:22:24;102307.61;;;-6.55;76.96
59417;BME280;45222;52.458;20.914;2023-02-28T04:26:10;102302.19;;;-6.56;76.63
59417;BME280;45222;52.458;20.914;2023-02-28T04:30:02;102302.61;;;-6.55;76.81
59417;BME280;45222;52.458;20.914;2023-02-28T04:34:01;102305.54;;;-6.55;76.82
59417;BME280;45222;52.458;20.914;2023-02-28T04:37:46;102309.45;;;-6.43;77.60
59417;BME280;45222;52.458;20.914;2023-02-28T04:41:38;102312.16;;;-6.34;77.86
59417;BME280;45222;52.458;20.914;2023-02-28T04:45:36;102310.40;;;-6.28;77.25
59417;BME280;45222;52.458;20.914;2023-02-28T04:49:22;102310.61;;;-6.27;77.03
59417;BME280;45222;52.458;20.914;2023-02-28T04:53:14;102314.35;;;-6.32;76.98
59417;BME280;45222;52.458;20.914;2023-02-28T04:57:12;102318.95;;;-6.43;76.66
59417;BME280;45222;52.458;20.914;2023-02-28T05:01:03;102318.29;;;-6.56;76.53
59417;BME280;45222;52.458;20.914;2023-02-28T05:04:56;102333.59;;;-6.68;76.57
59417;BME280;45222;52.458;20.914;2023-02-28T05:08:54;102334.06;;;-6.78;76.65
59417;BME280;45222;52.458;20.914;2023-02-28T05:12:40;102338.11;;;-6.87;76.83
59417;BME280;45222;52.458;20.914;2023-02-28T05:16:32;102346.99;;;-6.95;77.02
59417;BME280;45222;52.458;20.914;2023-02-28T05:20:24;102353.66;;;-7.00;76.84
59417;BME280;45222;52.458;20.914;2023-02-28T05:24:22;102355.78;;;-6.99;76.68
59417;BME280;45222;52.458;20.914;2023-02-28T05:28:08;102356.99;;;-6.93;77.17
59417;BME280;45222;52.458;20.914;2023-02-28T05:32:00;102358.27;;;-6.85;77.01
59417;BME280;45222;52.458;20.914;2023-02-28T05:35:58;102363.23;;;-6.77;76.93
59417;BME280;45222;52.458;20.914;2023-02-28T05:39:43;102366.95;;;-6.62;77.10
59417;BME280;45222;52.458;20.914;2023-02-28T05:43:36;102374.55;;;-6.46;77.20
59417;BME280;45222;52.458;20.914;2023-02-28T05:47:34;102377.94;;;-6.31;77.26
59417;BME280;45222;52.458;20.914;2023-02-28T05:51:20;102379.75;;;-6.23;77.02
59417;BME280;45222;52.458;20.914;2023-02-28T05:55:12;102379.89;;;-6.17;76.99
59417;BME280;45222;52.458;20.914;2023-02-28T05:59:04;102382.54;;;-6.13;76.74
59417;BME280;45222;52.458;20.914;2023-02-28T06:03:02;102380.63;;;-6.12;76.83
59417;BME280;45222;52.458;20.914;2023-02-28T06:06:54;102384.21;;;-6.13;76.53
59417;BME280;45222;52.458;20.914;2023-02-28T06:10:53;102389.95;;;-6.16;76.69
59417;BME280;45222;52.458;20.914;2023-02-28T06:14:38;102395.00;;;-6.20;76.81
59417;BME280;45222;52.458;20.914;2023-02-28T06:18:30;102395.40;;;-6.22;76.73
59417;BME280;45222;52.458;20.914;2023-02-28T06:22:29;102395.94;;;-6.25;76.59
59417;BME280;45222;52.458;20.914;2023-02-28T06:26:14;102392.55;;;-6.26;76.78
59417;BME280;45222;52.458;20.914;2023-02-28T06:30:09;102390.56;;;-6.25;77.19
59417;BME280;45222;52.458;20.914;2023-02-28T06:34:07;102389.58;;;-6.21;77.36
59417;BME280;45222;52.458;20.914;2023-02-28T06:37:59;102387.54;;;-6.13;77.43
59417;BME280;45222;52.458;20.914;2023-02-28T06:41:57;102382.91;;;-6.05;77.78
59417;BME280;45222;52.458;20.914;2023-02-28T06:45:44;102379.17;;;-5.96;77.91
59417;BME280;45222;52.458;20.914;2023-02-28T06:49:36;102382.66;;;-5.83;77.43
59417;BME280;45222;52.458;20.914;2023-02-28T06:53:36;102373.84;;;-5.69;77.50
59417;BME280;45222;52.458;20.914;2023-02-28T06:57:22;102372.55;;;-5.49;77.99
59417;BME280;45222;52.458;20.914;2023-02-28T07:01:16;102364.54;;;-5.24;78.73
59417;BME280;45222;52.458;20.914;2023-02-28T07:05:15;102355.65;;;-4.96;78.75
59417;BME280;45222;52.458;20.914;2023-02-28T07:09:00;102349.46;;;-4.76;78.82
59417;BME280;45222;52.458;20.914;2023-02-28T07:12:52;102345.02;;;-4.59;79.16
59417;BME280;45222;52.458;20.914;2023-02-28T07:16:51;102340.70;;;-4.43;79.56
59417;BME280;45222;52.458;20.914;2023-02-28T07:20:36;102343.15;;;-4.23;79.49
59417;BME280;45222;52.458;20.914;2023-02-28T07:24:29;102338.38;;;-4.05;79.11
59417;BME280;45222;52.458;20.914;2023-02-28T07:28:28;102338.94;;;-3.88;78.22
59417;BME280;45222;52.458;20.914;2023-02-28T07:32:20;102336.98;;;-3.72;77.70
59417;BME280;45222;52.458;20.914;2023-02-28T07:36:19;102340.24;;;-3.56;77.66
59417;BME280;45222;52.458;20.914;2023-02-28T07:40:13;102339.26;;;-3.37;77.54
59417;BME280;45222;52.458;20.914;2023-02-28T07:44:12;102339.54;;;-3.17;76.54
59417;BME280;45222;52.458;20.914;2023-02-28T07:47:58;102339.93;;;-2.94;76.34
59417;BME280;45222;52.458;20.914;2023-02-28T07:51:49;102334.76;;;-2.65;75.92
59417;BME280;45222;52.458;20.914;2023-02-28T07:55:48;102325.36;;;-2.40;75.72
59417;BME280;45222;52.458;20.914;2023-02-28T07:59:33;102329.75;;;-2.15;75.26
59417;BME280;45222;52.458;20.914;2023-02-28T08:03:25;102331.42;;;-1.92;74.63
59417;BME280;45222;52.458;20.914;2023-02-28T08:07:24;102333.91;;;-1.70;74.13
59417;BME280;45222;52.458;20.914;2023-02-28T08:11:09;102338.60;;;-1.49;73.20
59417;BME280;45222;52.458;20.914;2023-02-28T08:15:01;102337.36;;;-1.33;71.30
59417;BME280;45222;52.458;20.914;2023-02-28T08:19:00;102337.21;;;-1.22;71.92
59417;BME280;45222;52.458;20.914;2023-02-28T08:22:45;102342.46;;;-1.11;70.50
59417;BME280;45222;52.458;20.914;2023-02-28T08:26:36;102344.25;;;-1.03;70.01
59417;BME280;45222;52.458;20.914;2023-02-28T08:30:41;102348.62;;;-0.98;70.44
59417;BME280;45222;52.458;20.914;2023-02-28T08:34:26;102347.15;;;-0.89;70.21
59417;BME280;45222;52.458;20.914;2023-02-28T08:38:31;102349.78;;;-0.77;70.08
59417;BME280;45222;52.458;20.914;2023-02-28T08:42:16;102350.98;;;-0.72;68.84
59417;BME280;45222;52.458;20.914;2023-02-28T08:46:08;102355.16;;;-0.60;67.37
59417;BME280;45222;52.458;20.914;2023-02-28T08:50:10;102354.84;;;-0.53;67.38
59417;BME280;45222;52.458;20.914;2023-02-28T08:54:15;102356.30;;;-0.44;67.85
59417;BME280;45222;52.458;20.914;2023-02-28T08:58:03;102360.93;;;-0.36;67.33
59417;BME280;45222;52.458;20.914;2023-02-28T09:01:55;102359.54;;;-0.29;66.93
59417;BME280;45222;52.458;20.914;2023-02-28T09:05:55;102367.88;;;-0.25;66.17
59417;BME280;45222;52.458;20.914;2023-02-28T09:09:40;102366.45;;;-0.20;66.17
59417;BME280;45222;52.458;20.914;2023-02-28T09:13:42;102365.39;;;-0.07;66.95
59417;BME280;45222;52.458;20.914;2023-02-28T09:17:41;102358.89;;;-0.02;66.33
59417;BME280;45222;52.458;20.914;2023-02-28T09:21:32;102352.56;;;0.04;65.74
59417;BME280;45222;52.458;20.914;2023-02-28T09:25:31;102348.78;;;0.12;65.46
59417;BME280;45222;52.458;20.914;2023-02-28T09:29:16;102345.92;;;0.17;65.95
59417;BME280;45222;52.458;20.914;2023-02-28T09:33:08;102341.52;;;0.23;65.42
59417;BME280;45222;52.458;20.914;2023-02-28T09:37:13;102345.15;;;0.28;65.27
59417;BME280;45222;52.458;20.914;2023-02-28T09:41:11;102344.23;;;0.33;65.80
59417;BME280;45222;52.458;20.914;2023-02-28T09:45:24;102347.19;;;0.39;64.76
59417;BME280;45222;52.458;20.914;2023-02-28T09:49:19;102345.79;;;0.47;64.66
59417;BME280;45222;52.458;20.914;2023-02-28T09:53:26;102345.91;;;0.51;64.09
59417;BME280;45222;52.458;20.914;2023-02-28T09:57:19;102348.73;;;0.59;62.43
59417;BME280;45222;52.458;20.914;2023-02-28T10:01:23;102350.94;;;0.63;63.20
59417;BME280;45222;52.458;20.914;2023-02-28T10:05:24;102358.99;;;0.70;62.80
59417;BME280;45222;52.458;20.914;2023-02-28T10:09:15;102363.95;;;0.80;63.44
59417;BME280;45222;52.458;20.914;2023-02-28T10:13:17;102364.81;;;0.87;62.52
59417;BME280;45222;52.458;20.914;2023-02-28T10:17:21;102362.62;;;0.90;61.29
59417;BME280;45222;52.458;20.914;2023-02-28T10:21:17;102359.25;;;0.89;60.87
59417;BME280;45222;52.458;20.914;2023-02-28T10:25:18;102355.74;;;0.96;60.82
59417;BME280;45222;52.458;20.914;2023-02-28T10:29:17;102355.20;;;1.04;60.67
59417;BME280;45222;52.458;20.914;2023-02-28T10:33:03;102351.63;;;1.24;61.21
59417;BME280;45222;52.458;20.914;2023-02-28T10:36:55;102340.79;;;1.42;60.87
59417;BME280;45222;52.458;20.914;2023-02-28T10:41:07;102336.02;;;1.40;58.96
59417;BME280;45222;52.458;20.914;2023-02-28T10:45:10;102320.90;;;1.38;58.56
59417;BME280;45222;52.458;20.914;2023-02-28T10:49:05;102304.91;;;1.45;60.10
59417;BME280;45222;52.458;20.914;2023-02-28T10:53:14;102301.05;;;1.62;60.40
59417;BME280;45222;52.458;20.914;2023-02-28T10:57:23;102295.96;;;1.80;60.09
59417;BME280;45222;52.458;20.914;2023-02-28T11:01:24;102294.37;;;1.99;59.75
59417;BME280;45222;52.458;20.914;2023-02-28T11:05:31;102288.23;;;2.09;57.18
59417;BME280;45222;52.458;20.914;2023-02-28T11:09:22;102293.48;;;2.19;58.35
59417;BME280;45222;52.458;20.914;2023-02-28T11:13:20;102291.75;;;2.20;57.42
59417;BME280;45222;52.458;20.914;2023-02-28T11:17:23;102288.89;;;2.17;57.31
59417;BME280;45222;52.458;20.914;2023-02-28T11:21:11;102286.80;;;2.28;57.76
59417;BME280;45222;52.458;20.914;2023-02-28T11:25:12;102280.23;;;2.35;56.49
59417;BME280;45222;52.458;20.914;2023-02-28T11:29:20;102273.38;;;2.34;55.26
59417;BME280;45222;52.458;20.914;2023-02-28T11:33:23;102270.40;;;2.35;56.05
59417;BME280;45222;52.458;20.914;2023-02-28T11:37:18;102265.96;;;2.43;56.56
59417;BME280;45222;52.458;20.914;2023-02-28T11:41:38;102259.91;;;2.49;55.09
59417;BME280;45222;52.458;20.914;2023-02-28T11:45:59;102262.86;;;2.47;55.12
59417;BME280;45222;52.458;20.914;2023-02-28T11:50:10;102258.98;;;2.46;54.21
59417;BME280;45222;52.458;20.914;2023-02-28T11:54:25;102259.41;;;2.51;54.05
59417;BME280;45222;52.458;20.914;2023-02-28T11:58:29;102253.46;;;2.64;53.79
59417;BME280;45222;52.458;20.914;2023-02-28T12:02:37;102252.02;;;2.75;54.30
59417;BME280;45222;52.458;20.914;2023-02-28T12:06:33;102247.85;;;2.91;53.31
59417;BME280;45222;52.458;20.914;2023-02-28T12:10:29;102239.25;;;3.05;53.19
59417;BME280;45222;52.458;20.914;2023-02-28T12:14:52;102234.54;;;3.22;52.49
59417;BME280;45222;52.458;20.914;2023-02-28T12:19:19;102226.59;;;3.51;52.71
59417;BME280;45222;52.458;20.914;2023-02-28T12:23:40;102224.48;;;3.68;51.34
59417;BME280;45222;52.458;20.914;2023-02-28T12:27:31;102224.92;;;3.77;51.82
59417;BME280;45222;52.458;20.914;2023-02-28T12:31:26;102227.14;;;3.88;51.63
59417;BME280;45222;52.458;20.914;2023-02-28T12:35:33;102222.31;;;4.00;50.86
59417;BME280;45222;52.458;20.914;2023-02-28T12:39:25;102212.94;;;4.17;51.02
59417;BME280;45222;52.458;20.914;2023-02-28T12:43:19;102205.77;;;4.23;50.53
59417;BME280;45222;52.458;20.914;2023-02-28T12:47:20;102209.14;;;4.28;50.81
59417;BME280;45222;52.458;20.914;2023-02-28T12:51:13;102208.13;;;4.33;51.03
59417;BME280;45222;52.458;20.914;2023-02-28T12:55:17;102205.73;;;4.44;50.72
59417;BME280;45222;52.458;20.914;2023-02-28T12:59:13;102194.55;;;4.59;51.17
59417;BME280;45222;52.458;20.914;2023-02-28T13:07:49;102189.33;;;4.72;50.57
59417;BME280;45222;52.458;20.914;2023-02-28T13:11:44;102181.59;;;4.77;49.86
59417;BME280;45222;52.458;20.914;2023-02-28T13:15:58;102175.45;;;4.79;49.11
59417;BME280;45222;52.458;20.914;2023-02-28T13:19:46;102180.41;;;4.89;49.25
59417;BME280;45222;52.458;20.914;2023-02-28T13:24:05;102172.70;;;5.01;48.63
59417;BME280;45222;52.458;20.914;2023-02-28T13:27:58;102170.27;;;5.09;48.68
59417;BME280;45222;52.458;20.914;2023-02-28T13:32:32;102166.74;;;5.13;47.46
59417;BME280;45222;52.458;20.914;2023-02-28T13:36:28;102161.66;;;5.23;47.67
59417;BME280;45222;52.458;20.914;2023-02-28T13:40:31;102154.27;;;5.32;47.13
59417;BME280;45222;52.458;20.914;2023-02-28T13:49:25;102138.05;;;5.35;47.85
59417;BME280;45222;52.458;20.914;2023-02-28T13:57:44;102130.47;;;5.44;47.18
59417;BME280;45222;52.458;20.914;2023-02-28T14:02:08;102124.63;;;5.31;47.63
59417;BME280;45222;52.458;20.914;2023-02-28T14:06:24;102120.73;;;5.27;47.76
59417;BME280;45222;52.458;20.914;2023-02-28T14:10:22;102121.97;;;5.23;47.81
59417;BME280;45222;52.458;20.914;2023-02-28T14:18:50;102117.74;;;5.26;47.22
59417;BME280;45222;52.458;20.914;2023-02-28T14:22:52;102110.15;;;5.24;47.87
59417;BME280;45222;52.458;20.914;2023-02-28T14:27:00;102112.09;;;5.25;47.26
59417;BME280;45222;52.458;20.914;2023-02-28T14:31:03;102108.73;;;5.13;47.50
59417;BME280;45222;52.458;20.914;2023-02-28T14:35:16;102101.81;;;5.04;47.36
59417;BME280;45222;52.458;20.914;2023-02-28T14:39:25;102098.84;;;5.11;47.75
59417;BME280;45222;52.458;20.914;2023-02-28T14:43:21;102093.90;;;5.05;47.34
59417;BME280;45222;52.458;20.914;2023-02-28T14:47:16;102095.32;;;5.10;47.51
59417;BME280;45222;52.458;20.914;2023-02-28T14:51:19;102092.14;;;5.12;47.42
59417;BME280;45222;52.458;20.914;2023-02-28T14:55:12;102090.03;;;5.12;47.36
59417;BME280;45222;52.458;20.914;2023-02-28T14:59:04;102093.18;;;5.02;47.77
59417;BME280;45222;52.458;20.914;2023-02-28T15:03:19;102095.27;;;4.91;47.79
59417;BME280;45222;52.458;20.914;2023-02-28T15:07:09;102095.41;;;4.76;47.66
59417;BME280;45222;52.458;20.914;2023-02-28T15:11:03;102090.23;;;4.60;48.30
59417;BME280;45222;52.458;20.914;2023-02-28T15:15:03;102092.78;;;4.37;48.63
59417;BME280;45222;52.458;20.914;2023-02-28T15:18:49;102092.09;;;4.11;48.50
59417;BME280;45222;52.458;20.914;2023-02-28T15:22:44;102093.52;;;3.84;49.06
59417;BME280;45222;52.458;20.914;2023-02-28T15:26:46;102095.05;;;3.54;49.55
59417;BME280;45222;52.458;20.914;2023-02-28T15:30:35;102097.10;;;3.27;50.15
59417;BME280;45222;52.458;20.914;2023-02-28T15:34:33;102100.34;;;3.01;50.72
59417;BME280;45222;52.458;20.914;2023-02-28T15:38:34;102104.02;;;2.84;51.20
59417;BME280;45222;52.458;20.914;2023-02-28T15:42:22;102108.23;;;2.67;51.53
59417;BME280;45222;52.458;20.914;2023-02-28T15:46:14;102111.50;;;2.48;51.81
59417;BME280;45222;52.458;20.914;2023-02-28T15:50:15;102103.46;;;2.25;52.25
59417;BME280;45222;52.458;20.914;2023-02-28T15:54:01;102110.45;;;2.09;52.59
59417;BME280;45222;52.458;20.914;2023-02-28T15:57:56;102104.71;;;1.90;52.87
59417;BME280;45222;52.458;20.914;2023-02-28T16:02:03;102100.05;;;1.72;53.37
59417;BME280;45222;52.458;20.914;2023-02-28T16:06:32;102099.23;;;1.54;53.90
59417;BME280;45222;52.458;20.914;2023-02-28T16:10:27;102096.45;;;1.34;54.28
59417;BME280;45222;52.458;20.914;2023-02-28T16:14:28;102101.58;;;1.17;54.72
59417;BME280;45222;52.458;20.914;2023-02-28T16:18:21;102103.18;;;1.00;55.00
59417;BME280;45222;52.458;20.914;2023-02-28T16:22:20;102101.77;;;0.81;56.05
59417;BME280;45222;52.458;20.914;2023-02-28T16:26:07;102105.25;;;0.62;57.23
59417;BME280;45222;52.458;20.914;2023-02-28T16:29:59;102113.19;;;0.39;57.95
59417;BME280;45222;52.458;20.914;2023-02-28T16:33:58;102116.05;;;0.18;57.84
59417;BME280;45222;52.458;20.914;2023-02-28T16:37:51;102128.86;;;-0.03;58.45
59417;BME280;45222;52.458;20.914;2023-02-28T16:41:51;102133.22;;;-0.25;58.81
59417;BME280;45222;52.458;20.914;2023-02-28T16:45:43;102141.23;;;-0.48;59.13
59417;BME280;45222;52.458;20.914;2023-02-28T16:49:41;102140.42;;;-0.72;59.80
59417;BME280;45222;52.458;20.914;2023-02-28T16:53:35;102141.48;;;-0.92;60.59
59417;BME280;45222;52.458;20.914;2023-02-28T16:57:26;102141.99;;;-1.11;60.84
59417;BME280;45222;52.458;20.914;2023-02-28T17:01:24;102139.27;;;-1.28;61.46
59417;BME280;45222;52.458;20.914;2023-02-28T17:05:18;102148.20;;;-1.44;61.23
59417;BME280;45222;52.458;20.914;2023-02-28T17:09:19;102147.07;;;-1.59;61.39
59417;BME280;45222;52.458;20.914;2023-02-28T17:13:12;102142.92;;;-1.75;61.97
59417;BME280;45222;52.458;20.914;2023-02-28T17:17:17;102149.27;;;-1.84;62.12
59417;BME280;45222;52.458;20.914;2023-02-28T17:21:14;102139.33;;;-2.01;62.78
59417;BME280;45222;52.458;20.914;2023-02-28T17:25:12;102138.44;;;-2.12;62.92
59417;BME280;45222;52.458;20.914;2023-02-28T17:28:58;102129.60;;;-2.22;63.41
59417;BME280;45222;52.458;20.914;2023-02-28T17:32:50;102128.06;;;-2.26;64.11
59417;BME280;45222;52.458;20.914;2023-02-28T17:36:49;102129.79;;;-2.26;65.05
59417;BME280;45222;52.458;20.914;2023-02-28T17:40:35;102130.09;;;-2.22;65.60
59417;BME280;45222;52.458;20.914;2023-02-28T17:44:40;102127.20;;;-2.20;65.46
59417;BME280;45222;52.458;20.914;2023-02-28T17:48:26;102120.00;;;-2.23;65.25
59417;BME280;45222;52.458;20.914;2023-02-28T17:52:17;102117.15;;;-2.24;65.32
59417;BME280;45222;52.458;20.914;2023-02-28T17:56:17;102108.55;;;-2.31;65.65
59417;BME280;45222;52.458;20.914;2023-02-28T18:00:15;102108.95;;;-2.41;65.93
59417;BME280;45222;52.458;20.914;2023-02-28T18:04:14;102099.67;;;-2.52;66.49
59417;BME280;45222;52.458;20.914;2023-02-28T18:08:00;102101.02;;;-2.60;66.48
59417;BME280;45222;52.458;20.914;2023-02-28T18:11:53;102099.74;;;-2.71;66.38
59417;BME280;45222;52.458;20.914;2023-02-28T18:15:51;102098.97;;;-2.79;66.42
59417;BME280;45222;52.458;20.914;2023-02-28T18:19:37;102091.05;;;-2.91;67.02
59417;BME280;45222;52.458;20.914;2023-02-28T18:23:29;102090.35;;;-3.02;67.24
59417;BME280;45222;52.458;20.914;2023-02-28T18:27:27;102086.00;;;-3.12;67.52
59417;BME280;45222;52.458;20.914;2023-02-28T18:31:14;102084.39;;;-3.23;68.41
59417;BME280;45222;52.458;20.914;2023-02-28T18:35:08;102085.29;;;-3.32;68.68
59417;BME280;45222;52.458;20.914;2023-02-28T18:39:06;102082.73;;;-3.35;68.18
59417;BME280;45222;52.458;20.914;2023-02-28T18:42:52;102084.40;;;-3.37;68.23
59417;BME280;45222;52.458;20.914;2023-02-28T18:46:44;102090.62;;;-3.29;68.88
59417;BME280;45222;52.458;20.914;2023-02-28T18:50:42;102094.59;;;-3.15;69.02
59417;BME280;45222;52.458;20.914;2023-02-28T18:54:28;102096.47;;;-3.06;69.39
59417;BME280;45222;52.458;20.914;2023-02-28T18:58:20;102090.45;;;-2.99;69.20
59417;BME280;45222;52.458;20.914;2023-02-28T19:02:19;102090.04;;;-2.96;68.94
59417;BME280;45222;52.458;20.914;2023-02-28T19:06:05;102083.40;;;-2.97;69.04
59417;BME280;45222;52.458;20.914;2023-02-28T19:09:57;102095.40;;;-2.97;69.01
59417;BME280;45222;52.458;20.914;2023-02-28T19:13:56;102096.99;;;-3.06;69.36
59417;BME280;45222;52.458;20.914;2023-02-28T19:17:42;102098.27;;;-3.15;69.55
59417;BME280;45222;52.458;20.914;2023-02-28T19:21:33;102101.91;;;-3.25;69.72
59417;BME280;45222;52.458;20.914;2023-02-28T19:25:32;102113.70;;;-3.35;69.74
59417;BME280;45222;52.458;20.914;2023-02-28T19:29:17;102114.89;;;-3.45;69.81
59417;BME280;45222;52.458;20.914;2023-02-28T19:33:09;102122.34;;;-3.55;70.04
59417;BME280;45222;52.458;20.914;2023-02-28T19:37:08;102126.13;;;-3.61;69.73
59417;BME280;45222;52.458;20.914;2023-02-28T19:41:01;102130.30;;;-3.70;70.54
59417;BME280;45222;52.458;20.914;2023-02-28T19:44:52;102132.16;;;-3.72;71.19
59417;BME280;45222;52.458;20.914;2023-02-28T19:48:53;102134.13;;;-3.66;71.41
59417;BME280;45222;52.458;20.914;2023-02-28T19:52:39;102132.27;;;-3.64;71.51
59417;BME280;45222;52.458;20.914;2023-02-28T19:56:30;102135.42;;;-3.64;71.47
59417;BME280;45222;52.458;20.914;2023-02-28T20:00:29;102137.20;;;-3.63;71.06
59417;BME280;45222;52.458;20.914;2023-02-28T20:04:14;102136.80;;;-3.69;71.39
59417;BME280;45222;52.458;20.914;2023-02-28T20:08:06;102136.33;;;-3.72;71.22
59417;BME280;45222;52.458;20.914;2023-02-28T20:11:58;102133.53;;;-3.82;71.40
59417;BME280;45222;52.458;20.914;2023-02-28T20:15:59;102124.25;;;-3.92;71.48
59417;BME280;45222;52.458;20.914;2023-02-28T20:19:45;102118.45;;;-4.03;71.93
59417;BME280;45222;52.458;20.914;2023-02-28T20:23:38;102114.88;;;-4.14;72.04
59417;BME280;45222;52.458;20.914;2023-02-28T20:27:37;102119.90;;;-4.27;72.01
59417;BME280;45222;52.458;20.914;2023-02-28T20:31:24;102123.38;;;-4.44;72.82
59417;BME280;45222;52.458;20.914;2023-02-28T20:35:16;102129.52;;;-4.56;73.24
59417;BME280;45222;52.458;20.914;2023-02-28T20:39:15;102130.20;;;-4.64;73.27
59417;BME280;45222;52.458;20.914;2023-02-28T20:43:00;102124.30;;;-4.68;73.03
59417;BME280;45222;52.458;20.914;2023-02-28T20:46:52;102118.52;;;-4.74;72.97